Time;durP1;ratioP1;P1;durP2;ratioP2;P2;SDS_P1;SDS_P2;PMS_P1;PMS_P2;Temp;Humidity;BMP_temperature;BMP_pressure;BME280_temperature;BME280_humidity;BME280_pressure;Samples;Min_cycle;Max_cycle;Signal;HPM_P1;HPM_P2
2023/05/12 00:01:41;;;;;;;9.38;6.25;;;11.70;99.90;;;;;;5065177;28;20051;-87
2023/05/12 00:04:06;;;;;;;10.02;6.50;;;11.70;99.90;;;;;;5062800;28;20487;-87
2023/05/12 00:06:32;;;;;;;9.55;6.65;;;11.70;99.90;;;;;;5046472;28;20097;-87
2023/05/12 00:08:58;;;;;;;10.50;6.93;;;11.70;99.90;;;;;;5063577;28;20134;-87
2023/05/12 00:11:23;;;;;;;8.73;6.55;;;11.70;99.90;;;;;;5063083;28;20151;-87
2023/05/12 00:13:49;;;;;;;10.05;6.88;;;11.70;99.90;;;;;;5065049;28;20501;-87
2023/05/12 00:16:17;;;;;;;11.75;7.20;;;12.10;99.90;;;;;;5047947;28;20083;-87
2023/05/12 00:18:43;;;;;;;10.40;7.03;;;11.70;99.90;;;;;;5062818;28;20407;-87
2023/05/12 00:21:11;;;;;;;11.23;7.45;;;11.70;99.90;;;;;;5063928;28;20681;-87
2023/05/12 00:23:37;;;;;;;14.00;7.90;;;11.70;99.90;;;;;;5047236;28;20052;-86
2023/05/12 00:26:03;;;;;;;12.95;7.90;;;11.70;99.90;;;;;;5064539;28;20051;-87
2023/05/12 00:28:29;;;;;;;11.00;7.53;;;11.70;99.90;;;;;;5064576;28;20040;-87
2023/05/12 00:30:55;;;;;;;13.73;8.75;;;11.70;99.90;;;;;;5066107;28;20110;-87
2023/05/12 00:33:21;;;;;;;13.98;9.27;;;11.70;99.90;;;;;;5048353;28;20102;-87
2023/05/12 00:35:47;;;;;;;14.68;8.98;;;11.70;99.90;;;;;;5065815;28;20398;-87
2023/05/12 00:38:12;;;;;;;15.18;9.88;;;11.70;99.90;;;;;;5049337;28;20041;-86
2023/05/12 00:40:39;;;;;;;16.48;10.00;;;11.70;99.90;;;;;;5066182;28;20078;-87
2023/05/12 00:43:07;;;;;;;16.10;11.27;;;11.70;99.90;;;;;;5069837;28;20470;-87
2023/05/12 00:45:36;;;;;;;18.50;11.23;;;11.70;99.90;;;;;;5067543;28;20395;-87
2023/05/12 00:48:03;;;;;;;20.30;12.77;;;11.70;99.90;;;;;;5047678;28;20147;-87
2023/05/12 00:50:29;;;;;;;19.98;10.95;;;11.70;99.90;;;;;;5066327;28;20049;-86
2023/05/12 00:52:56;;;;;;;22.77;12.30;;;11.80;99.90;;;;;;5067300;28;20048;-86
2023/05/12 00:55:22;;;;;;;18.98;11.35;;;11.80;99.90;;;;;;5066014;28;20386;-87
2023/05/12 00:57:48;;;;;;;17.38;11.52;;;11.70;99.90;;;;;;5051369;28;20036;-87
2023/05/12 01:00:14;;;;;;;18.95;12.00;;;11.80;99.90;;;;;;5068174;28;20052;-87
2023/05/12 01:02:39;;;;;;;21.83;12.95;;;11.60;99.90;;;;;;5069158;28;20044;-86
2023/05/12 01:05:05;;;;;;;20.17;11.68;;;12.10;99.90;;;;;;5066804;28;20045;-87
2023/05/12 01:07:32;;;;;;;20.25;12.90;;;11.80;99.90;;;;;;5070230;28;20078;-87
2023/05/12 01:09:58;;;;;;;21.98;13.63;;;11.80;99.90;;;;;;5067143;28;20051;-86
2023/05/12 01:12:24;;;;;;;22.88;12.65;;;11.80;99.90;;;;;;5084744;28;20052;-86
2023/05/12 01:14:53;;;;;;;21.73;13.40;;;11.80;99.90;;;;;;5053431;28;20059;-87
2023/05/12 01:17:20;;;;;;;24.00;13.65;;;12.70;99.90;;;;;;5052392;28;20055;-86
2023/05/12 01:19:49;;;;;;;24.92;14.90;;;12.00;99.90;;;;;;5049546;28;20037;-86
2023/05/12 01:22:16;;;;;;;26.27;14.10;;;11.90;99.90;;;;;;5069803;28;20548;-86
2023/05/12 01:24:46;;;;;;;26.63;15.52;;;12.30;99.90;;;;;;5067789;28;20386;-87
2023/05/12 01:27:13;;;;;;;26.40;16.00;;;11.90;99.90;;;;;;5052989;28;20437;-87
2023/05/12 01:29:39;;;;;;;27.15;16.23;;;12.60;99.90;;;;;;5067896;28;20057;-85
2023/05/12 01:32:05;;;;;;;30.77;18.13;;;12.70;99.90;;;;;;5065483;28;20616;-86
2023/05/12 01:34:32;;;;;;;28.58;16.45;;;11.90;99.90;;;;;;5067583;28;20433;-86
2023/05/12 01:36:58;;;;;;;31.02;17.63;;;11.90;99.90;;;;;;5068459;28;20051;-87
2023/05/12 01:39:24;;;;;;;29.58;17.42;;;11.90;99.90;;;;;;5066154;28;20036;-87
2023/05/12 01:41:49;;;;;;;33.13;18.17;;;12.00;99.90;;;;;;5067963;28;20040;-87
2023/05/12 01:44:15;;;;;;;30.05;17.23;;;11.90;99.90;;;;;;5049526;28;20050;-87
2023/05/12 01:46:40;;;;;;;36.72;18.23;;;11.90;99.90;;;;;;5068744;28;20045;-86
2023/05/12 01:49:06;;;;;;;34.65;18.08;;;11.90;99.90;;;;;;5066792;28;20537;-87
2023/05/12 01:51:32;;;;;;;34.10;18.30;;;12.60;99.90;;;;;;5064708;28;20529;-86
2023/05/12 01:53:58;;;;;;;31.27;17.75;;;12.00;99.90;;;;;;5066953;28;20104;-86
2023/05/12 01:56:23;;;;;;;35.75;18.27;;;11.90;99.90;;;;;;5068311;28;20060;-86
2023/05/12 01:58:49;;;;;;;37.58;19.65;;;11.90;99.90;;;;;;5050084;28;20120;-86
2023/05/12 02:01:17;;;;;;;34.53;17.90;;;11.90;99.90;;;;;;5067684;28;20139;-86
2023/05/12 02:03:43;;;;;;;32.95;18.35;;;12.00;99.90;;;;;;5051620;28;20044;-86
2023/05/12 02:06:09;;;;;;;31.95;19.50;;;11.90;99.90;;;;;;5067019;28;20457;-86
2023/05/12 02:08:35;;;;;;;35.42;19.02;;;12.00;99.90;;;;;;5066514;28;20044;-86
2023/05/12 02:11:08;;;;;;;30.17;18.75;;;11.90;99.90;;;;;;5067636;28;20045;-87
2023/05/12 02:13:34;;;;;;;36.13;18.58;;;12.00;99.90;;;;;;5068902;28;20037;-87
2023/05/12 02:16:00;;;;;;;35.28;18.63;;;12.00;99.90;;;;;;5065282;28;20048;-86
2023/05/12 02:18:26;;;;;;;35.30;19.02;;;12.30;99.90;;;;;;5068246;28;20036;-87
2023/05/12 02:20:52;;;;;;;34.50;19.35;;;12.00;99.90;;;;;;5065263;28;20121;-86
2023/05/12 02:23:18;;;;;;;32.72;19.73;;;12.00;99.90;;;;;;5067502;28;20060;-87
2023/05/12 02:25:44;;;;;;;35.53;19.55;;;12.00;99.90;;;;;;5067256;28;20048;-87
2023/05/12 02:28:10;;;;;;;37.28;21.40;;;12.00;99.90;;;;;;5067393;28;20139;-86
2023/05/12 02:30:36;;;;;;;38.65;20.85;;;12.00;99.90;;;;;;5047377;28;20083;-87
2023/05/12 02:33:04;;;;;;;35.58;20.48;;;12.30;99.90;;;;;;5067215;28;20132;-87
2023/05/12 02:35:30;;;;;;;37.45;19.75;;;12.00;99.90;;;;;;5067723;28;20418;-87
2023/05/12 02:37:56;;;;;;;37.63;20.58;;;12.00;99.90;;;;;;5050723;28;20044;-87
2023/05/12 02:40:22;;;;;;;38.22;21.58;;;12.00;99.90;;;;;;5066565;28;20135;-86
2023/05/12 02:42:48;;;;;;;35.90;20.38;;;12.90;99.90;;;;;;5066596;28;20048;-87
2023/05/12 02:45:14;;;;;;;38.28;21.00;;;12.00;99.90;;;;;;5064059;28;20052;-87
2023/05/12 02:47:39;;;;;;;37.97;21.13;;;12.00;99.90;;;;;;5063964;28;20053;-87
2023/05/12 02:50:06;;;;;;;36.83;21.17;;;12.00;99.90;;;;;;5049237;28;20122;-87
2023/05/12 02:52:31;;;;;;;37.75;21.42;;;12.00;99.90;;;;;;5065363;28;20684;-87
2023/05/12 02:54:57;;;;;;;41.92;22.00;;;12.00;99.90;;;;;;5044652;28;20049;-87
2023/05/12 02:57:23;;;;;;;38.70;20.63;;;12.20;99.90;;;;;;5064196;28;20156;-86
2023/05/12 02:59:48;;;;;;;40.55;21.92;;;12.00;99.90;;;;;;5049575;28;20040;-86
2023/05/12 03:02:14;;;;;;;43.38;21.67;;;12.00;99.90;;;;;;5068272;28;20053;-87
2023/05/12 03:04:40;;;;;;;43.75;22.38;;;12.00;99.90;;;;;;5066161;28;20036;-87
2023/05/12 03:07:06;;;;;;;40.88;21.98;;;12.10;99.90;;;;;;5067795;28;20035;-86
2023/05/12 03:09:31;;;;;;;42.60;21.63;;;12.00;99.90;;;;;;5049671;28;20029;-86
2023/05/12 03:11:57;;;;;;;42.17;22.00;;;12.00;99.90;;;;;;5065958;28;20048;-87
2023/05/12 03:14:22;;;;;;;42.70;22.27;;;12.00;99.90;;;;;;5048218;28;20192;-87
2023/05/12 03:16:48;;;;;;;44.75;22.38;;;12.00;99.90;;;;;;5046835;28;20352;-86
2023/05/12 03:19:14;;;;;;;44.35;22.45;;;12.00;99.90;;;;;;5066031;28;20611;-86
2023/05/12 03:21:39;;;;;;;40.28;21.95;;;12.00;99.90;;;;;;5064716;28;20044;-87
2023/05/12 03:24:05;;;;;;;47.25;23.98;;;12.00;99.90;;;;;;5066284;28;20447;-86
2023/05/12 03:26:31;;;;;;;47.22;24.35;;;12.00;99.90;;;;;;5067734;28;20036;-86
2023/05/12 03:28:56;;;;;;;45.15;23.35;;;12.00;99.90;;;;;;5066674;28;20040;-86
2023/05/12 03:31:22;;;;;;;46.25;23.50;;;12.00;99.90;;;;;;5065673;28;20097;-86
2023/05/12 03:33:48;;;;;;;45.05;23.45;;;12.00;99.90;;;;;;5050553;28;20040;-86
2023/05/12 03:36:13;;;;;;;45.60;22.10;;;12.30;99.90;;;;;;5065615;28;20051;-86
2023/05/12 03:38:39;;;;;;;49.35;24.13;;;12.00;99.90;;;;;;5065859;28;20429;-86
2023/05/12 03:41:08;;;;;;;49.00;25.15;;;12.00;99.90;;;;;;5066361;28;20052;-87
2023/05/12 03:43:34;;;;;;;47.35;22.80;;;12.00;99.90;;;;;;5067068;28;20044;-86
2023/05/12 03:46:00;;;;;;;45.70;22.75;;;12.00;99.90;;;;;;5048920;28;20063;-86
2023/05/12 03:48:26;;;;;;;46.25;23.80;;;12.00;99.90;;;;;;5069601;28;20487;-85
2023/05/12 03:50:51;;;;;;;48.45;23.83;;;12.00;99.90;;;;;;5050264;28;20059;-86
2023/05/12 03:53:17;;;;;;;49.58;23.67;;;12.00;99.90;;;;;;5049195;28;20040;-86
2023/05/12 03:55:43;;;;;;;52.53;24.73;;;12.00;99.90;;;;;;5086943;28;20038;-86
2023/05/12 03:58:08;;;;;;;47.88;23.35;;;12.00;99.90;;;;;;5054955;28;20048;-86
2023/05/12 04:00:34;;;;;;;54.15;23.98;;;12.10;99.90;;;;;;5066205;28;20536;-85
2023/05/12 04:03:00;;;;;;;50.60;24.48;;;12.10;99.90;;;;;;5052117;28;20075;-87
2023/05/12 04:05:25;;;;;;;50.40;25.70;;;12.10;99.90;;;;;;5069217;28;20073;-86
2023/05/12 04:07:51;;;;;;;54.88;24.88;;;12.10;99.90;;;;;;5068379;28;20040;-87
2023/05/12 04:10:17;;;;;;;53.58;25.73;;;12.10;99.90;;;;;;5053328;28;20108;-84
2023/05/12 04:12:42;;;;;;;51.70;25.15;;;12.10;99.90;;;;;;5086512;28;20197;-86
2023/05/12 04:15:08;;;;;;;52.20;25.08;;;12.20;99.90;;;;;;5072408;28;20814;-85
2023/05/12 04:17:34;;;;;;;52.13;25.10;;;12.20;99.90;;;;;;5093140;28;20496;-85
2023/05/12 04:19:59;;;;;;;49.95;24.40;;;12.20;99.90;;;;;;5092486;28;20071;-85
2023/05/12 04:22:25;;;;;;;51.53;24.92;;;12.20;99.90;;;;;;5074417;28;20082;-86
2023/05/12 04:24:51;;;;;;;48.55;24.20;;;12.20;99.90;;;;;;5087292;28;20036;-85
2023/05/12 04:27:16;;;;;;;47.83;23.25;;;12.90;99.90;;;;;;5071407;28;20043;-86
2023/05/12 04:29:42;;;;;;;48.65;23.60;;;12.20;99.90;;;;;;5073719;28;20727;-84
2023/05/12 04:32:08;;;;;;;49.55;25.48;;;12.90;99.90;;;;;;5086955;28;20044;-87
2023/05/12 04:34:34;;;;;;;46.33;24.52;;;12.30;99.90;;;;;;5092264;28;20065;-85
2023/05/12 04:37:00;;;;;;;43.47;25.20;;;12.70;99.90;;;;;;5073891;28;20047;-85
2023/05/12 04:39:27;;;;;;;45.35;23.35;;;12.30;99.90;;;;;;5073207;28;20657;-84
2023/05/12 04:41:52;;;;;;;46.80;23.85;;;12.30;99.90;;;;;;5056234;28;20059;-85
2023/05/12 04:44:18;;;;;;;45.55;23.55;;;12.40;99.90;;;;;;5092214;28;20036;-85
2023/05/12 04:46:43;;;;;;;44.80;23.40;;;12.30;99.90;;;;;;5072716;28;20044;-85
2023/05/12 04:49:10;;;;;;;44.30;24.00;;;12.40;99.90;;;;;;5072997;28;20136;-84
2023/05/12 04:51:41;;;;;;;44.15;24.73;;;12.40;99.90;;;;;;5056946;28;20105;-85
2023/05/12 04:54:10;;;;;;;46.08;25.08;;;12.40;99.90;;;;;;5072381;28;20119;-85
2023/05/12 04:56:36;;;;;;;43.92;22.45;;;12.50;99.90;;;;;;5072979;28;20044;-87
2023/05/12 04:59:02;;;;;;;42.67;23.15;;;12.50;99.90;;;;;;5072823;28;20050;-85
2023/05/12 05:01:28;;;;;;;42.05;22.73;;;12.50;99.90;;;;;;5054003;28;20047;-85
2023/05/12 05:03:53;;;;;;;39.60;22.08;;;12.50;99.90;;;;;;5053734;28;20091;-85
2023/05/12 05:06:19;;;;;;;35.58;21.42;;;12.50;99.90;;;;;;5056528;28;20051;-86
2023/05/12 05:08:47;;;;;;;39.28;22.42;;;12.50;99.90;;;;;;5071588;28;20067;-85
2023/05/12 05:11:12;;;;;;;40.42;22.95;;;12.50;99.90;;;;;;5071957;28;20059;-84
2023/05/12 05:13:38;;;;;;;38.17;22.05;;;12.50;99.90;;;;;;5073046;28;20048;-86
2023/05/12 05:16:05;;;;;;;41.38;22.38;;;12.50;99.90;;;;;;5055993;28;20075;-87
2023/05/12 05:18:31;;;;;;;39.00;22.40;;;12.50;99.90;;;;;;5056373;28;20094;-85
2023/05/12 05:20:57;;;;;;;37.38;21.05;;;12.60;99.90;;;;;;5055553;28;20044;-87
2023/05/12 05:23:22;;;;;;;39.22;21.85;;;12.60;99.90;;;;;;5072200;28;20631;-85
2023/05/12 05:25:48;;;;;;;38.30;21.33;;;12.60;99.90;;;;;;5072045;28;20082;-84
2023/05/12 05:28:13;;;;;;;41.30;21.63;;;12.60;99.90;;;;;;5055636;28;20394;-86
2023/05/12 05:30:39;;;;;;;38.95;22.13;;;12.70;99.90;;;;;;5054532;28;20051;-86
2023/05/12 05:33:05;;;;;;;35.75;20.85;;;12.70;99.90;;;;;;5072155;28;20074;-85
2023/05/12 05:35:31;;;;;;;38.08;21.75;;;13.20;99.90;;;;;;5071866;28;20044;-85
2023/05/12 05:37:56;;;;;;;39.20;22.10;;;12.90;99.90;;;;;;5071713;28;20127;-84
2023/05/12 05:40:22;;;;;;;36.30;21.25;;;12.70;99.90;;;;;;5054957;28;20055;-85
2023/05/12 05:42:48;;;;;;;42.97;24.00;;;12.70;99.90;;;;;;5089858;28;20054;-85
2023/05/12 05:45:13;;;;;;;42.45;22.58;;;12.80;99.90;;;;;;5071142;28;20083;-87
2023/05/12 05:47:39;;;;;;;40.30;21.40;;;12.70;99.90;;;;;;5068648;28;20059;-87
2023/05/12 05:50:05;;;;;;;39.35;21.83;;;12.80;99.90;;;;;;5068963;28;20052;-85
2023/05/12 05:52:31;;;;;;;40.95;22.65;;;12.80;99.90;;;;;;5051400;28;20054;-86
2023/05/12 05:54:57;;;;;;;38.67;21.95;;;12.70;99.90;;;;;;5070060;28;20040;-86
2023/05/12 05:57:23;;;;;;;51.17;22.92;;;12.70;99.90;;;;;;5052216;28;20131;-86
2023/05/12 05:59:48;;;;;;;41.20;22.38;;;12.80;99.90;;;;;;5068739;28;20045;-87
2023/05/12 06:02:15;;;;;;;37.50;22.35;;;12.80;99.90;;;;;;5068753;28;20206;-86
2023/05/12 06:04:40;;;;;;;43.15;22.98;;;13.20;99.90;;;;;;5068534;28;20059;-87
2023/05/12 06:07:06;;;;;;;39.78;22.08;;;12.90;99.90;;;;;;5051126;28;20048;-87
2023/05/12 06:09:32;;;;;;;40.70;22.65;;;12.90;99.90;;;;;;5068512;28;20044;-87
2023/05/12 06:11:57;;;;;;;37.22;22.15;;;13.00;99.90;;;;;;5051620;28;20056;-87
2023/05/12 06:14:24;;;;;;;39.13;22.42;;;13.20;99.90;;;;;;5049916;28;20135;-88
2023/05/12 06:16:50;;;;;;;38.28;21.88;;;13.40;99.90;;;;;;5068307;28;20503;-87
2023/05/12 06:19:15;;;;;;;41.83;22.58;;;13.10;99.90;;;;;;5068283;28;20128;-87
2023/05/12 06:21:41;;;;;;;36.17;21.48;;;13.10;99.90;;;;;;5067816;28;20425;-87
2023/05/12 06:24:06;;;;;;;38.22;21.42;;;13.10;99.90;;;;;;5067455;28;20352;-86
2023/05/12 06:26:32;;;;;;;38.10;22.60;;;13.10;99.90;;;;;;5069038;28;20052;-86
2023/05/12 06:28:58;;;;;;;37.40;21.98;;;13.10;99.90;;;;;;5067744;28;20048;-86
2023/05/12 06:31:23;;;;;;;38.72;22.67;;;13.20;99.90;;;;;;5067586;28;20087;-85
2023/05/12 06:33:49;;;;;;;39.78;22.77;;;13.20;99.90;;;;;;5067915;28;20040;-84
2023/05/12 06:36:15;;;;;;;38.38;21.38;;;13.20;99.90;;;;;;5067631;28;20068;-85
2023/05/12 06:38:40;;;;;;;34.13;21.70;;;13.20;99.90;;;;;;5065725;28;20155;-85
2023/05/12 06:41:06;;;;;;;37.67;22.88;;;13.40;99.90;;;;;;5069412;28;20045;-84
2023/05/12 06:43:32;;;;;;;38.72;23.42;;;13.30;99.90;;;;;;5067928;28;20128;-84
2023/05/12 06:45:57;;;;;;;37.25;22.00;;;13.30;99.90;;;;;;5067469;28;20046;-84
2023/05/12 06:48:23;;;;;;;38.65;22.83;;;13.20;99.90;;;;;;5054220;28;20052;-84
2023/05/12 06:50:49;;;;;;;38.13;23.17;;;13.50;99.90;;;;;;5088684;28;20070;-84
2023/05/12 06:53:14;;;;;;;36.70;21.95;;;13.30;99.90;;;;;;5052696;28;20067;-84
2023/05/12 06:55:42;;;;;;;37.90;23.23;;;13.30;99.90;;;;;;5086999;28;20148;-85
2023/05/12 06:58:08;;;;;;;36.78;22.30;;;13.30;99.90;;;;;;5070387;28;20146;-85
2023/05/12 07:00:34;;;;;;;38.85;23.15;;;13.30;99.90;;;;;;5054050;28;20127;-85
2023/05/12 07:03:00;;;;;;;35.47;22.48;;;13.30;99.90;;;;;;5070638;28;20436;-87
2023/05/12 07:05:25;;;;;;;35.25;21.83;;;13.40;99.90;;;;;;5070812;28;20048;-90
2023/05/12 07:07:51;;;;;;;34.13;21.65;;;13.40;99.90;;;;;;5070944;28;20087;-88
2023/05/12 07:10:17;;;;;;;37.40;24.02;;;13.50;99.90;;;;;;5069563;28;20047;-86
2023/05/12 07:12:42;;;;;;;35.58;22.88;;;13.50;99.90;;;;;;5087391;28;20126;-85
2023/05/12 07:15:08;;;;;;;33.90;21.63;;;13.50;99.90;;;;;;5088479;28;20040;-85
2023/05/12 07:17:34;;;;;;;36.38;23.58;;;13.60;99.90;;;;;;5069753;28;20131;-85
2023/05/12 07:20:00;;;;;;;37.53;22.40;;;13.60;99.90;;;;;;5070123;28;20142;-86
2023/05/12 07:22:26;;;;;;;34.95;22.17;;;13.70;99.90;;;;;;5087099;28;20071;-86
2023/05/12 07:24:52;;;;;;;36.53;22.13;;;14.40;99.90;;;;;;5087362;28;20159;-85
2023/05/12 07:27:17;;;;;;;37.85;22.67;;;13.80;99.90;;;;;;5069079;28;20531;-85
2023/05/12 07:29:43;;;;;;;36.60;23.63;;;13.90;99.90;;;;;;5069570;28;20051;-85
2023/05/12 07:32:09;;;;;;;37.28;22.60;;;14.00;99.90;;;;;;5086464;28;20044;-85
2023/05/12 07:34:37;;;;;;;34.58;22.48;;;14.00;99.90;;;;;;5067671;28;20048;-85
2023/05/12 07:37:05;;;;;;;36.28;22.50;;;14.10;99.90;;;;;;5051195;28;20507;-85
2023/05/12 07:39:31;;;;;;;33.47;21.80;;;14.20;99.90;;;;;;5067602;28;20067;-85
2023/05/12 07:41:57;;;;;;;34.80;22.02;;;14.80;99.90;;;;;;5050803;28;20047;-86
2023/05/12 07:44:23;;;;;;;30.27;21.45;;;15.00;99.90;;;;;;5049982;28;20047;-86
2023/05/12 07:46:48;;;;;;;33.58;21.55;;;14.50;99.90;;;;;;5068063;28;20060;-86
2023/05/12 07:49:14;;;;;;;30.20;20.83;;;14.60;99.90;;;;;;5069043;28;20208;-85
2023/05/12 07:51:40;;;;;;;30.10;21.45;;;14.70;99.90;;;;;;5069642;28;20036;-85
2023/05/12 07:54:06;;;;;;;29.15;20.98;;;14.70;99.90;;;;;;5069354;28;20185;-86
2023/05/12 07:56:32;;;;;;;29.77;21.13;;;14.80;99.90;;;;;;5068644;28;20054;-86
2023/05/12 07:58:58;;;;;;;28.00;20.45;;;14.90;99.90;;;;;;5069130;28;20060;-86
2023/05/12 08:01:24;;;;;;;29.13;20.58;;;15.00;99.90;;;;;;5069266;28;20051;-86
2023/05/12 08:03:50;;;;;;;27.80;20.02;;;15.10;99.90;;;;;;5049804;28;20363;-86
2023/05/12 08:06:16;;;;;;;28.23;20.00;;;15.10;99.90;;;;;;5069486;28;20097;-86
2023/05/12 08:08:42;;;;;;;25.80;20.52;;;15.10;99.90;;;;;;5052620;28;20050;-86
2023/05/12 08:11:08;;;;;;;27.58;19.20;;;15.10;99.90;;;;;;5069263;28;20040;-85
2023/05/12 08:13:38;;;;;;;29.63;20.00;;;15.10;99.90;;;;;;5052709;28;20040;-85
2023/05/12 08:16:04;;;;;;;26.45;19.40;;;15.00;99.90;;;;;;5069439;28;20055;-86
2023/05/12 08:18:30;;;;;;;25.15;19.05;;;15.10;99.90;;;;;;5052023;28;20044;-86
2023/05/12 08:20:55;;;;;;;27.48;18.25;;;15.70;99.90;;;;;;5069138;28;20086;-85
2023/05/12 08:23:21;;;;;;;27.40;19.73;;;15.40;99.90;;;;;;5068478;28;20040;-86
2023/05/12 08:25:47;;;;;;;25.40;19.25;;;15.30;99.90;;;;;;5068314;28;20075;-86
2023/05/12 08:28:13;;;;;;;24.90;18.65;;;15.20;99.90;;;;;;5069071;28;20510;-86
2023/05/12 08:30:40;;;;;;;24.00;18.10;;;15.30;99.90;;;;;;5052858;28;20468;-86
2023/05/12 08:33:05;;;;;;;23.85;18.35;;;15.80;99.90;;;;;;5068404;28;20051;-86
2023/05/12 08:35:31;;;;;;;22.60;18.70;;;15.30;99.90;;;;;;5069237;28;20070;-86
2023/05/12 08:37:58;;;;;;;23.42;18.75;;;15.30;99.90;;;;;;5052315;28;20360;-85
2023/05/12 08:40:25;;;;;;;21.77;17.75;;;15.30;99.90;;;;;;5069598;28;20370;-85
2023/05/12 08:42:54;;;;;;;22.50;18.13;;;15.90;99.90;;;;;;5068892;28;20126;-86
2023/05/12 08:45:22;;;;;;;23.30;17.30;;;15.40;99.90;;;;;;5068900;28;20071;-86
2023/05/12 08:47:49;;;;;;;23.13;17.40;;;16.00;99.90;;;;;;5068264;28;21146;-85
2023/05/12 08:50:17;;;;;;;23.00;18.00;;;15.50;99.90;;;;;;5068869;28;20425;-85
2023/05/12 08:52:42;;;;;;;22.58;17.67;;;15.70;99.90;;;;;;5068405;28;20117;-85
2023/05/12 08:55:08;;;;;;;22.75;18.33;;;16.20;99.90;;;;;;5067586;28;20760;-85
2023/05/12 08:57:36;;;;;;;23.23;18.45;;;16.00;99.90;;;;;;5052950;28;20044;-85
2023/05/12 09:00:04;;;;;;;19.83;17.52;;;16.20;99.90;;;;;;5069493;28;20055;-86
2023/05/12 09:02:30;;;;;;;20.48;17.08;;;16.20;99.90;;;;;;5072708;28;20131;-85
2023/05/12 09:04:56;;;;;;;19.98;17.83;;;16.40;99.90;;;;;;5072771;28;20044;-86
2023/05/12 09:07:26;;;;;;;20.85;17.33;;;16.60;99.90;;;;;;5072601;28;20047;-86
2023/05/12 09:09:59;;;;;;;20.75;17.60;;;17.10;99.90;;;;;;5055394;28;20472;-86
2023/05/12 09:12:30;;;;;;;18.58;15.95;;;16.90;99.90;;;;;;5091222;28;20050;-85
2023/05/12 09:15:06;;;;;;;20.35;16.73;;;17.50;99.90;;;;;;5071320;28;20134;-86
2023/05/12 09:17:33;;;;;;;21.90;16.95;;;17.20;99.90;;;;;;5056122;28;20127;-86
2023/05/12 09:19:59;;;;;;;18.92;15.52;;;17.50;99.90;;;;;;5072649;28;20048;-85
2023/05/12 09:22:30;;;;;;;20.48;16.27;;;17.80;99.90;;;;;;5073156;28;20051;-85
2023/05/12 09:24:55;;;;;;;18.33;16.17;;;18.10;99.90;;;;;;5089700;28;20502;-85
2023/05/12 09:27:28;;;;;;;18.35;16.35;;;17.60;99.90;;;;;;5071847;28;20102;-86
2023/05/12 09:29:54;;;;;;;21.40;16.95;;;17.80;99.90;;;;;;5055524;28;20101;-85
2023/05/12 09:32:33;;;;;;;17.20;15.40;;;18.00;99.90;;;;;;5071223;28;20409;-86
2023/05/12 09:35:05;;;;;;;17.13;15.32;;;18.50;99.90;;;;;;5071999;28;20040;-85
2023/05/12 09:37:32;;;;;;;17.10;15.33;;;18.50;99.90;;;;;;5072439;28;20048;-85
2023/05/12 09:40:02;;;;;;;16.83;15.05;;;18.20;99.90;;;;;;5054431;28;20294;-86
2023/05/12 09:42:29;;;;;;;16.77;14.98;;;18.30;99.90;;;;;;5089506;28;20054;-85
2023/05/12 09:45:08;;;;;;;16.90;15.20;;;18.30;99.90;;;;;;5072349;28;20152;-85
2023/05/12 09:47:35;;;;;;;15.57;13.98;;;18.40;99.90;;;;;;5054922;28;20060;-85
2023/05/12 09:50:05;;;;;;;15.52;14.02;;;18.50;99.90;;;;;;5054269;28;20052;-86
2023/05/12 09:52:37;;;;;;;15.18;13.57;;;18.60;99.90;;;;;;5055459;28;20043;-85
2023/05/12 09:55:11;;;;;;;14.90;13.30;;;18.70;99.90;;;;;;5054261;28;20127;-85
2023/05/12 09:57:42;;;;;;;15.63;13.88;;;18.70;99.90;;;;;;5055132;28;20051;-86
2023/05/12 10:00:10;;;;;;;15.85;14.35;;;18.70;99.90;;;;;;5054364;28;20082;-86
2023/05/12 10:02:41;;;;;;;16.17;14.52;;;18.80;99.90;;;;;;5071548;28;20048;-86
2023/05/12 10:05:15;;;;;;;16.00;14.45;;;19.20;99.90;;;;;;5071444;28;20056;-85
2023/05/12 10:07:44;;;;;;;14.15;12.75;;;19.00;99.90;;;;;;5070373;28;20044;-87
2023/05/12 10:10:12;;;;;;;13.48;12.15;;;19.10;99.90;;;;;;5053855;28;20044;-86
2023/05/12 10:12:39;;;;;;;14.38;12.98;;;19.00;99.90;;;;;;5070763;28;20052;-86
2023/05/12 10:15:07;;;;;;;14.57;12.90;;;19.20;99.90;;;;;;5071968;28;20188;-86
2023/05/12 10:17:34;;;;;;;14.38;12.95;;;19.40;99.90;;;;;;5070980;28;20362;-86
2023/05/12 10:20:02;;;;;;;13.38;12.07;;;19.40;99.90;;;;;;5054562;28;20864;-85
2023/05/12 10:22:30;;;;;;;12.98;11.60;;;19.40;99.90;;;;;;5071992;28;20515;-85
2023/05/12 10:24:56;;;;;;;11.57;10.48;;;19.60;99.90;;;;;;5054621;28;20056;-85
2023/05/12 10:27:32;;;;;;;12.75;11.43;;;19.70;99.90;;;;;;5071900;28;20059;-86
2023/05/12 10:29:59;;;;;;;11.10;9.93;;;19.80;99.90;;;;;;5071852;28;20509;-85
2023/05/12 10:32:25;;;;;;;9.35;8.45;;;20.30;99.90;;;;;;5054832;28;20044;-87
2023/05/12 10:34:51;;;;;;;8.65;7.85;;;20.10;99.90;;;;;;5075077;28;20044;-85
2023/05/12 10:37:17;;;;;;;8.13;7.43;;;19.70;99.90;;;;;;5054347;28;20059;-85
2023/05/12 10:39:47;;;;;;;7.88;7.18;;;19.80;99.90;;;;;;5070385;28;20044;-87
2023/05/12 10:42:16;;;;;;;7.32;6.40;;;19.90;99.90;;;;;;5054285;28;20048;-86
2023/05/12 10:44:50;;;;;;;6.47;5.88;;;20.40;99.90;;;;;;5070170;28;20051;-86
2023/05/12 10:47:16;;;;;;;6.50;5.90;;;20.50;99.90;;;;;;5053845;28;20059;-87
2023/05/12 10:49:42;;;;;;;6.75;6.15;;;20.40;99.90;;;;;;5054271;28;20055;-86
2023/05/12 10:52:12;;;;;;;7.35;6.72;;;20.60;99.90;;;;;;5070792;28;20370;-87
2023/05/12 10:54:43;;;;;;;7.63;6.93;;;20.80;99.90;;;;;;5070463;28;20036;-89
2023/05/12 10:57:27;;;;;;;8.05;7.35;;;20.50;99.90;;;;;;5070534;28;20086;-86
2023/05/12 10:59:57;;;;;;;8.32;7.63;;;20.60;99.90;;;;;;5070071;28;20044;-86
2023/05/12 11:02:31;;;;;;;9.50;8.63;;;20.80;99.90;;;;;;5053941;28;20127;-87
2023/05/12 11:05:03;;;;;;;9.40;8.40;;;20.80;99.90;;;;;;5051102;28;20040;-87
2023/05/12 11:07:31;;;;;;;9.75;8.88;;;20.90;99.90;;;;;;5034199;28;20093;-87
2023/05/12 11:10:02;;;;;;;8.68;7.80;;;20.90;99.90;;;;;;5033180;28;20056;-89
2023/05/12 11:12:31;;;;;;;9.20;8.43;;;21.00;99.90;;;;;;5035591;28;20127;-87
2023/05/12 11:14:59;;;;;;;9.75;8.82;;;21.20;99.90;;;;;;5070407;28;20089;-86
2023/05/12 11:17:25;;;;;;;10.63;9.63;;;21.00;99.90;;;;;;5088357;28;20048;-87
2023/05/12 11:19:52;;;;;;;10.57;9.57;;;21.00;99.90;;;;;;5069949;28;20048;-86
2023/05/12 11:22:20;;;;;;;11.73;10.60;;;21.00;99.90;;;;;;5053907;28;20138;-88
2023/05/12 11:24:46;;;;;;;11.23;10.23;;;21.00;99.90;;;;;;5053178;28;20046;-86
2023/05/12 11:27:18;;;;;;;11.13;10.13;;;21.20;99.90;;;;;;5070146;28;20645;-86
2023/05/12 11:29:53;;;;;;;10.75;9.82;;;21.10;99.90;;;;;;5070432;28;20058;-86
2023/05/12 11:32:19;;;;;;;9.88;8.90;;;21.10;99.90;;;;;;5069689;28;20627;-85
2023/05/12 11:34:46;;;;;;;9.57;8.68;;;21.10;99.90;;;;;;5053058;28;20052;-86
2023/05/12 11:37:11;;;;;;;10.60;9.60;;;21.30;99.90;;;;;;5053753;28;20181;-86
2023/05/12 11:39:37;;;;;;;11.10;9.98;;;21.50;99.90;;;;;;5069540;28;20075;-86
2023/05/12 11:42:08;;;;;;;10.00;9.05;;;21.70;99.90;;;;;;5053027;28;20086;-86
2023/05/12 11:44:34;;;;;;;10.07;9.17;;;21.60;99.90;;;;;;5052975;28;20464;-86
2023/05/12 11:47:14;;;;;;;10.73;9.73;;;21.60;99.90;;;;;;5069097;28;20048;-87
2023/05/12 11:49:50;;;;;;;9.73;8.93;;;21.70;99.90;;;;;;5053468;28;20040;-87
2023/05/12 11:52:17;;;;;;;9.82;8.85;;;21.70;99.90;;;;;;5069551;28;20056;-87
2023/05/12 11:54:56;;;;;;;8.20;7.38;;;21.70;99.90;;;;;;5052867;28;20127;-87
2023/05/12 11:57:27;;;;;;;8.73;7.53;;;22.00;99.90;;;;;;5053089;28;20048;-86
2023/05/12 12:00:01;;;;;;;6.45;5.95;;;21.60;99.90;;;;;;5053129;28;20094;-86
2023/05/12 12:02:27;;;;;;;7.10;5.78;;;21.70;99.90;;;;;;5069392;28;20143;-86
2023/05/12 12:04:53;;;;;;;7.47;6.78;;;21.90;99.90;;;;;;5087270;28;20692;-87
2023/05/12 12:07:33;;;;;;;8.45;6.70;;;22.10;99.90;;;;;;5069855;28;20055;-86
2023/05/12 12:10:16;;;;;;;5.65;5.15;;;22.20;99.90;;;;;;5087783;28;20052;-86
2023/05/12 12:12:42;;;;;;;5.47;5.03;;;22.30;99.90;;;;;;5069026;28;20048;-86
2023/05/12 12:15:09;;;;;;;5.30;4.85;;;22.40;99.90;;;;;;5069182;28;20397;-88
2023/05/12 12:17:34;;;;;;;8.95;6.32;;;22.50;99.90;;;;;;5069488;28;20058;-86
2023/05/12 12:20:03;;;;;;;6.95;6.35;;;22.50;99.90;;;;;;5069718;28;20048;-86
2023/05/12 12:22:33;;;;;;;6.22;5.10;;;22.40;99.80;;;;;;5052825;28;20058;-86
2023/05/12 12:24:59;;;;;;;5.53;4.97;;;22.60;99.90;;;;;;5068673;28;20040;-86
2023/05/12 12:27:24;;;;;;;5.90;5.28;;;22.50;98.10;;;;;;5069181;28;20199;-87
2023/05/12 12:29:50;;;;;;;5.05;4.55;;;22.50;95.60;;;;;;5086707;28;20130;-87